sensor_id;sensor_type;location;lat;lon;timestamp;temperature;humidity
35395;DHT22;21500;45.308;9.488;2022-10-31T00:02:26;15.60;99.90
35395;DHT22;21500;45.308;9.488;2022-10-31T00:04:59;15.50;99.90
35395;DHT22;21500;45.308;9.488;2022-10-31T00:07:25;15.40;99.90
35395;DHT22;21500;45.308;9.488;2022-10-31T00:09:54;15.30;99.90
35395;DHT22;21500;45.308;9.488;2022-10-31T00:12:31;15.20;99.90
35395;DHT22;21500;45.308;9.488;2022-10-31T00:15:02;15.10;99.90
35395;DHT22;21500;45.308;9.488;2022-10-31T00:17:34;15.20;99.90
35395;DHT22;21500;45.308;9.488;2022-10-31T00:20:10;15.10;99.90
35395;DHT22;21500;45.308;9.488;2022-10-31T00:22:38;15.10;99.90
35395;DHT22;21500;45.308;9.488;2022-10-31T00:25:33;15.10;99.90
35395;DHT22;21500;45.308;9.488;2022-10-31T00:28:03;15.10;99.90
35395;DHT22;21500;45.308;9.488;2022-10-31T00:30:34;15.10;99.90
35395;DHT22;21500;45.308;9.488;2022-10-31T00:33:09;15.10;99.90
35395;DHT22;21500;45.308;9.488;2022-10-31T00:35:39;15.10;99.90
35395;DHT22;21500;45.308;9.488;2022-10-31T00:38:06;15.00;99.90
35395;DHT22;21500;45.308;9.488;2022-10-31T00:40:32;14.90;99.90
35395;DHT22;21500;45.308;9.488;2022-10-31T00:43:01;15.00;99.90
35395;DHT22;21500;45.308;9.488;2022-10-31T00:45:27;15.20;99.90
35395;DHT22;21500;45.308;9.488;2022-10-31T00:47:54;15.10;99.90
35395;DHT22;21500;45.308;9.488;2022-10-31T00:50:22;15.10;99.90
35395;DHT22;21500;45.308;9.488;2022-10-31T00:52:49;14.80;99.90
35395;DHT22;21500;45.308;9.488;2022-10-31T00:55:15;14.70;99.90
35395;DHT22;21500;45.308;9.488;2022-10-31T00:57:42;14.70;99.90
35395;DHT22;21500;45.308;9.488;2022-10-31T01:00:08;14.70;99.90
35395;DHT22;21500;45.308;9.488;2022-10-31T01:02:35;14.70;99.90
35395;DHT22;21500;45.308;9.488;2022-10-31T01:05:05;14.70;99.90
35395;DHT22;21500;45.308;9.488;2022-10-31T01:07:36;14.80;99.90
35395;DHT22;21500;45.308;9.488;2022-10-31T01:10:02;14.60;99.90
35395;DHT22;21500;45.308;9.488;2022-10-31T01:12:41;14.50;99.90
35395;DHT22;21500;45.308;9.488;2022-10-31T01:15:09;14.50;99.90
35395;DHT22;21500;45.308;9.488;2022-10-31T01:17:37;14.60;99.90
35395;DHT22;21500;45.308;9.488;2022-10-31T01:20:11;14.50;99.90
35395;DHT22;21500;45.308;9.488;2022-10-31T01:22:38;14.40;99.90
35395;DHT22;21500;45.308;9.488;2022-10-31T01:25:06;14.40;99.90
35395;DHT22;21500;45.308;9.488;2022-10-31T01:27:33;14.50;99.90
35395;DHT22;21500;45.308;9.488;2022-10-31T01:29:59;14.50;99.90
35395;DHT22;21500;45.308;9.488;2022-10-31T01:32:26;14.50;99.90
35395;DHT22;21500;45.308;9.488;2022-10-31T01:34:57;14.60;99.90
35395;DHT22;21500;45.308;9.488;2022-10-31T01:37:24;14.60;99.90
35395;DHT22;21500;45.308;9.488;2022-10-31T01:39:51;14.50;99.90
35395;DHT22;21500;45.308;9.488;2022-10-31T01:42:21;14.30;99.90
35395;DHT22;21500;45.308;9.488;2022-10-31T01:45:00;14.30;99.90
35395;DHT22;21500;45.308;9.488;2022-10-31T01:47:41;14.30;99.90
35395;DHT22;21500;45.308;9.488;2022-10-31T01:50:20;14.40;99.90
35395;DHT22;21500;45.308;9.488;2022-10-31T01:52:52;14.40;99.90
35395;DHT22;21500;45.308;9.488;2022-10-31T01:55:32;14.40;99.90
35395;DHT22;21500;45.308;9.488;2022-10-31T01:58:06;14.40;99.90
35395;DHT22;21500;45.308;9.488;2022-10-31T02:00:35;14.30;99.90
35395;DHT22;21500;45.308;9.488;2022-10-31T02:03:02;14.40;99.90
35395;DHT22;21500;45.308;9.488;2022-10-31T02:05:30;14.40;99.90
35395;DHT22;21500;45.308;9.488;2022-10-31T02:08:16;14.50;99.90
35395;DHT22;21500;45.308;9.488;2022-10-31T02:10:49;14.40;99.90
35395;DHT22;21500;45.308;9.488;2022-10-31T02:13:19;14.50;99.90
35395;DHT22;21500;45.308;9.488;2022-10-31T02:15:53;14.50;99.90
35395;DHT22;21500;45.308;9.488;2022-10-31T02:18:20;14.50;99.90
35395;DHT22;21500;45.308;9.488;2022-10-31T02:34:19;14.30;99.90
35395;DHT22;21500;45.308;9.488;2022-10-31T02:37:06;14.30;99.90
35395;DHT22;21500;45.308;9.488;2022-10-31T02:39:48;14.30;99.90
35395;DHT22;21500;45.308;9.488;2022-10-31T02:42:38;14.30;99.90
35395;DHT22;21500;45.308;9.488;2022-10-31T02:45:19;14.30;99.90
35395;DHT22;21500;45.308;9.488;2022-10-31T02:47:50;14.20;99.90
35395;DHT22;21500;45.308;9.488;2022-10-31T02:50:28;14.20;99.90
35395;DHT22;21500;45.308;9.488;2022-10-31T02:52:56;14.20;99.90
35395;DHT22;21500;45.308;9.488;2022-10-31T03:00:26;14.10;99.90
35395;DHT22;21500;45.308;9.488;2022-10-31T03:05:32;14.00;99.90
35395;DHT22;21500;45.308;9.488;2022-10-31T03:08:54;14.00;99.90
35395;DHT22;21500;45.308;9.488;2022-10-31T03:11:11;14.00;99.90
35395;DHT22;21500;45.308;9.488;2022-10-31T03:13:49;14.00;99.90
35395;DHT22;21500;45.308;9.488;2022-10-31T03:24:06;13.90;99.90
35395;DHT22;21500;45.308;9.488;2022-10-31T03:26:38;13.90;99.90
35395;DHT22;21500;45.308;9.488;2022-10-31T03:29:10;13.90;99.90
35395;DHT22;21500;45.308;9.488;2022-10-31T03:31:50;14.00;99.90
35395;DHT22;21500;45.308;9.488;2022-10-31T03:38:30;14.00;99.90
35395;DHT22;21500;45.308;9.488;2022-10-31T03:41:43;14.00;99.90
35395;DHT22;21500;45.308;9.488;2022-10-31T03:49:05;13.90;99.90
35395;DHT22;21500;45.308;9.488;2022-10-31T03:56:17;13.90;99.90
35395;DHT22;21500;45.308;9.488;2022-10-31T04:00:04;13.90;99.90
35395;DHT22;21500;45.308;9.488;2022-10-31T04:03:21;13.80;99.90
35395;DHT22;21500;45.308;9.488;2022-10-31T04:06:16;13.80;99.90
35395;DHT22;21500;45.308;9.488;2022-10-31T04:08:59;13.60;99.90
35395;DHT22;21500;45.308;9.488;2022-10-31T04:11:30;13.60;99.90
35395;DHT22;21500;45.308;9.488;2022-10-31T04:14:24;13.60;99.90
35395;DHT22;21500;45.308;9.488;2022-10-31T04:16:51;13.50;99.90
35395;DHT22;21500;45.308;9.488;2022-10-31T04:19:21;13.50;99.90
35395;DHT22;21500;45.308;9.488;2022-10-31T04:21:47;13.50;99.90
35395;DHT22;21500;45.308;9.488;2022-10-31T04:24:13;13.50;99.90
35395;DHT22;21500;45.308;9.488;2022-10-31T04:26:40;13.50;99.90
35395;DHT22;21500;45.308;9.488;2022-10-31T04:29:06;13.50;99.90
35395;DHT22;21500;45.308;9.488;2022-10-31T04:31:32;13.50;99.90
35395;DHT22;21500;45.308;9.488;2022-10-31T04:33:58;13.50;99.90
35395;DHT22;21500;45.308;9.488;2022-10-31T04:36:25;13.40;99.90
35395;DHT22;21500;45.308;9.488;2022-10-31T04:38:52;13.50;99.90
35395;DHT22;21500;45.308;9.488;2022-10-31T04:41:33;13.40;99.90
35395;DHT22;21500;45.308;9.488;2022-10-31T04:44:06;13.40;99.90
35395;DHT22;21500;45.308;9.488;2022-10-31T04:46:33;13.40;99.90
35395;DHT22;21500;45.308;9.488;2022-10-31T04:49:02;13.30;99.90
35395;DHT22;21500;45.308;9.488;2022-10-31T04:51:29;13.30;99.90
35395;DHT22;21500;45.308;9.488;2022-10-31T04:53:57;13.30;99.90
35395;DHT22;21500;45.308;9.488;2022-10-31T04:56:37;13.30;99.90
35395;DHT22;21500;45.308;9.488;2022-10-31T04:59:10;13.20;99.90
35395;DHT22;21500;45.308;9.488;2022-10-31T05:01:50;13.30;99.90
35395;DHT22;21500;45.308;9.488;2022-10-31T05:04:21;13.20;99.90
35395;DHT22;21500;45.308;9.488;2022-10-31T05:06:50;13.20;99.90
35395;DHT22;21500;45.308;9.488;2022-10-31T05:09:16;13.20;99.90
35395;DHT22;21500;45.308;9.488;2022-10-31T05:11:47;13.20;99.90
35395;DHT22;21500;45.308;9.488;2022-10-31T05:14:37;13.20;99.90
35395;DHT22;21500;45.308;9.488;2022-10-31T05:17:21;13.10;99.90
35395;DHT22;21500;45.308;9.488;2022-10-31T05:20:12;13.10;99.90
35395;DHT22;21500;45.308;9.488;2022-10-31T05:22:51;13.10;99.90
35395;DHT22;21500;45.308;9.488;2022-10-31T05:25:18;13.10;99.90
35395;DHT22;21500;45.308;9.488;2022-10-31T05:27:46;13.20;99.90
35395;DHT22;21500;45.308;9.488;2022-10-31T05:30:16;13.20;99.90
35395;DHT22;21500;45.308;9.488;2022-10-31T05:32:49;13.10;99.90
35395;DHT22;21500;45.308;9.488;2022-10-31T05:39:05;13.20;99.90
35395;DHT22;21500;45.308;9.488;2022-10-31T05:41:48;13.10;99.90
35395;DHT22;21500;45.308;9.488;2022-10-31T05:44:46;13.10;99.90
35395;DHT22;21500;45.308;9.488;2022-10-31T05:47:56;13.00;99.90
35395;DHT22;21500;45.308;9.488;2022-10-31T05:51:25;12.90;99.90
35395;DHT22;21500;45.308;9.488;2022-10-31T05:54:15;12.90;99.90
35395;DHT22;21500;45.308;9.488;2022-10-31T05:57:28;12.70;99.90
35395;DHT22;21500;45.308;9.488;2022-10-31T05:59:58;12.60;99.90
35395;DHT22;21500;45.308;9.488;2022-10-31T06:02:44;12.60;99.90
35395;DHT22;21500;45.308;9.488;2022-10-31T06:05:46;12.70;99.90
35395;DHT22;21500;45.308;9.488;2022-10-31T06:08:21;12.70;99.90
35395;DHT22;21500;45.308;9.488;2022-10-31T08:45:09;16.80;99.90
35395;DHT22;21500;45.308;9.488;2022-10-31T09:15:27;17.40;99.90
35395;DHT22;21500;45.308;9.488;2022-10-31T09:32:18;18.50;99.90
35395;DHT22;21500;45.308;9.488;2022-10-31T09:43:43;19.00;99.90
35395;DHT22;21500;45.308;9.488;2022-10-31T11:02:25;27.20;99.90
35395;DHT22;21500;45.308;9.488;2022-10-31T11:05:53;27.50;99.90
35395;DHT22;21500;45.308;9.488;2022-10-31T11:08:37;28.70;99.70
35395;DHT22;21500;45.308;9.488;2022-10-31T11:25:37;27.60;99.80
35395;DHT22;21500;45.308;9.488;2022-10-31T11:28:08;27.80;99.70
35395;DHT22;21500;45.308;9.488;2022-10-31T11:30:54;27.70;99.80
35395;DHT22;21500;45.308;9.488;2022-10-31T11:41:36;28.20;99.80
35395;DHT22;21500;45.308;9.488;2022-10-31T11:44:18;27.80;99.90
35395;DHT22;21500;45.308;9.488;2022-10-31T11:46:54;26.90;99.90
35395;DHT22;21500;45.308;9.488;2022-10-31T11:52:43;29.10;99.20
35395;DHT22;21500;45.308;9.488;2022-10-31T11:55:42;27.50;99.20
35395;DHT22;21500;45.308;9.488;2022-10-31T11:58:24;27.80;99.90
35395;DHT22;21500;45.308;9.488;2022-10-31T12:00:54;28.10;99.90
35395;DHT22;21500;45.308;9.488;2022-10-31T12:25:34;24.00;99.90
35395;DHT22;21500;45.308;9.488;2022-10-31T12:41:47;27.10;99.90
35395;DHT22;21500;45.308;9.488;2022-10-31T12:45:11;26.90;99.90
35395;DHT22;21500;45.308;9.488;2022-10-31T12:53:29;25.20;99.90
35395;DHT22;21500;45.308;9.488;2022-10-31T13:17:00;25.70;99.90
35395;DHT22;21500;45.308;9.488;2022-10-31T13:19:43;26.90;99.90
35395;DHT22;21500;45.308;9.488;2022-10-31T13:22:29;26.90;99.90
35395;DHT22;21500;45.308;9.488;2022-10-31T13:25:14;27.40;99.90
35395;DHT22;21500;45.308;9.488;2022-10-31T13:27:59;28.10;99.80
35395;DHT22;21500;45.308;9.488;2022-10-31T13:30:34;28.40;99.50
35395;DHT22;21500;45.308;9.488;2022-10-31T13:33:25;27.80;99.60
35395;DHT22;21500;45.308;9.488;2022-10-31T13:41:39;28.50;98.40
35395;DHT22;21500;45.308;9.488;2022-10-31T13:44:28;28.50;98.50
35395;DHT22;21500;45.308;9.488;2022-10-31T13:46:57;28.60;98.60
35395;DHT22;21500;45.308;9.488;2022-10-31T13:54:46;29.50;98.00
35395;DHT22;21500;45.308;9.488;2022-10-31T13:57:27;29.70;97.60
35395;DHT22;21500;45.308;9.488;2022-10-31T13:59:58;29.80;97.80
35395;DHT22;21500;45.308;9.488;2022-10-31T14:02:35;29.40;97.40
35395;DHT22;21500;45.308;9.488;2022-10-31T14:05:22;28.30;97.50
35395;DHT22;21500;45.308;9.488;2022-10-31T14:07:50;28.30;97.80
35395;DHT22;21500;45.308;9.488;2022-10-31T14:10:28;28.60;97.60
35395;DHT22;21500;45.308;9.488;2022-10-31T14:13:30;28.00;97.70
35395;DHT22;21500;45.308;9.488;2022-10-31T14:15:58;28.00;97.00
35395;DHT22;21500;45.308;9.488;2022-10-31T14:21:13;30.70;96.10
35395;DHT22;21500;45.308;9.488;2022-10-31T14:23:43;30.20;95.50
35395;DHT22;21500;45.308;9.488;2022-10-31T14:26:38;28.50;96.60
35395;DHT22;21500;45.308;9.488;2022-10-31T14:32:05;29.30;96.00
35395;DHT22;21500;45.308;9.488;2022-10-31T14:34:37;30.20;95.50
35395;DHT22;21500;45.308;9.488;2022-10-31T14:45:59;33.50;93.50
35395;DHT22;21500;45.308;9.488;2022-10-31T15:57:12;25.30;98.40
35395;DHT22;21500;45.308;9.488;2022-10-31T16:05:19;24.30;99.90
35395;DHT22;21500;45.308;9.488;2022-10-31T16:13:12;23.40;99.90
35395;DHT22;21500;45.308;9.488;2022-10-31T16:15:50;23.10;99.90
35395;DHT22;21500;45.308;9.488;2022-10-31T16:18:18;22.70;99.90
35395;DHT22;21500;45.308;9.488;2022-10-31T16:20:54;22.50;99.90
35395;DHT22;21500;45.308;9.488;2022-10-31T16:23:22;22.40;99.90
35395;DHT22;21500;45.308;9.488;2022-10-31T16:25:50;22.40;99.90
35395;DHT22;21500;45.308;9.488;2022-10-31T16:28:22;22.30;99.90
35395;DHT22;21500;45.308;9.488;2022-10-31T16:38:55;21.80;99.90
35395;DHT22;21500;45.308;9.488;2022-10-31T16:41:30;21.70;99.90
35395;DHT22;21500;45.308;9.488;2022-10-31T16:44:09;21.60;99.90
35395;DHT22;21500;45.308;9.488;2022-10-31T17:15:37;20.30;99.90
35395;DHT22;21500;45.308;9.488;2022-10-31T17:26:59;20.00;99.90
35395;DHT22;21500;45.308;9.488;2022-10-31T17:29:26;19.90;99.90
35395;DHT22;21500;45.308;9.488;2022-10-31T17:31:55;19.90;99.90
35395;DHT22;21500;45.308;9.488;2022-10-31T17:34:44;19.70;99.90
35395;DHT22;21500;45.308;9.488;2022-10-31T20:41:16;16.30;99.90
35395;DHT22;21500;45.308;9.488;2022-10-31T20:43:54;16.10;99.90
35395;DHT22;21500;45.308;9.488;2022-10-31T20:46:25;16.20;99.90
35395;DHT22;21500;45.308;9.488;2022-10-31T20:48:53;16.10;99.90
35395;DHT22;21500;45.308;9.488;2022-10-31T20:51:25;16.00;99.90
35395;DHT22;21500;45.308;9.488;2022-10-31T20:53:57;16.00;99.90
35395;DHT22;21500;45.308;9.488;2022-10-31T20:56:25;16.10;99.90
35395;DHT22;21500;45.308;9.488;2022-10-31T20:58:57;16.10;99.90
35395;DHT22;21500;45.308;9.488;2022-10-31T21:01:26;16.10;99.90
35395;DHT22;21500;45.308;9.488;2022-10-31T21:03:59;16.10;99.90
35395;DHT22;21500;45.308;9.488;2022-10-31T21:20:41;16.00;99.90
35395;DHT22;21500;45.308;9.488;2022-10-31T21:23:09;15.80;99.90
35395;DHT22;21500;45.308;9.488;2022-10-31T21:25:42;15.80;99.90
35395;DHT22;21500;45.308;9.488;2022-10-31T21:28:59;15.80;99.90
35395;DHT22;21500;45.308;9.488;2022-10-31T21:31:36;15.70;99.90
35395;DHT22;21500;45.308;9.488;2022-10-31T21:34:03;15.60;99.90
35395;DHT22;21500;45.308;9.488;2022-10-31T21:36:29;15.60;99.90
35395;DHT22;21500;45.308;9.488;2022-10-31T21:38:55;15.50;99.90
35395;DHT22;21500;45.308;9.488;2022-10-31T21:41:22;15.30;99.90
35395;DHT22;21500;45.308;9.488;2022-10-31T21:43:55;15.20;99.90
35395;DHT22;21500;45.308;9.488;2022-10-31T21:46:42;15.30;99.90
35395;DHT22;21500;45.308;9.488;2022-10-31T21:49:09;15.30;99.90
35395;DHT22;21500;45.308;9.488;2022-10-31T21:51:35;15.20;99.90
35395;DHT22;21500;45.308;9.488;2022-10-31T21:54:01;15.20;99.90
35395;DHT22;21500;45.308;9.488;2022-10-31T21:56:46;15.10;99.90
35395;DHT22;21500;45.308;9.488;2022-10-31T21:59:12;15.20;99.90
35395;DHT22;21500;45.308;9.488;2022-10-31T22:01:38;15.30;99.90
35395;DHT22;21500;45.308;9.488;2022-10-31T22:04:05;15.30;99.90
35395;DHT22;21500;45.308;9.488;2022-10-31T22:06:31;15.30;99.90
35395;DHT22;21500;45.308;9.488;2022-10-31T22:08:59;15.30;99.90
35395;DHT22;21500;45.308;9.488;2022-10-31T22:11:25;15.30;99.90
35395;DHT22;21500;45.308;9.488;2022-10-31T22:13:53;15.30;99.90
35395;DHT22;21500;45.308;9.488;2022-10-31T22:16:21;15.20;99.90
35395;DHT22;21500;45.308;9.488;2022-10-31T22:18:51;15.30;99.90
35395;DHT22;21500;45.308;9.488;2022-10-31T22:21:19;15.30;99.90
35395;DHT22;21500;45.308;9.488;2022-10-31T22:23:50;15.30;99.90
35395;DHT22;21500;45.308;9.488;2022-10-31T22:26:40;15.20;99.90
35395;DHT22;21500;45.308;9.488;2022-10-31T22:29:13;15.20;99.90
35395;DHT22;21500;45.308;9.488;2022-10-31T22:31:40;15.20;99.90
35395;DHT22;21500;45.308;9.488;2022-10-31T22:34:06;15.20;99.90
35395;DHT22;21500;45.308;9.488;2022-10-31T22:36:40;15.10;99.90
35395;DHT22;21500;45.308;9.488;2022-10-31T22:39:06;15.10;99.90
35395;DHT22;21500;45.308;9.488;2022-10-31T22:41:34;15.10;99.90
35395;DHT22;21500;45.308;9.488;2022-10-31T22:44:00;15.00;99.90
35395;DHT22;21500;45.308;9.488;2022-10-31T22:46:35;15.00;99.90
35395;DHT22;21500;45.308;9.488;2022-10-31T22:49:05;14.90;99.90
35395;DHT22;21500;45.308;9.488;2022-10-31T22:51:34;14.90;99.90
35395;DHT22;21500;45.308;9.488;2022-10-31T22:54:00;15.00;99.90
35395;DHT22;21500;45.308;9.488;2022-10-31T22:56:31;15.00;99.90
35395;DHT22;21500;45.308;9.488;2022-10-31T22:58:57;15.00;99.90
35395;DHT22;21500;45.308;9.488;2022-10-31T23:01:27;15.10;99.90
35395;DHT22;21500;45.308;9.488;2022-10-31T23:03:57;15.10;99.90
35395;DHT22;21500;45.308;9.488;2022-10-31T23:06:25;15.10;99.90
35395;DHT22;21500;45.308;9.488;2022-10-31T23:08:52;15.10;99.90
35395;DHT22;21500;45.308;9.488;2022-10-31T23:11:20;15.00;99.90
35395;DHT22;21500;45.308;9.488;2022-10-31T23:13:47;14.90;99.90
35395;DHT22;21500;45.308;9.488;2022-10-31T23:16:32;14.90;99.90
35395;DHT22;21500;45.308;9.488;2022-10-31T23:18:58;14.90;99.90
35395;DHT22;21500;45.308;9.488;2022-10-31T23:21:25;14.90;99.90
35395;DHT22;21500;45.308;9.488;2022-10-31T23:24:10;14.90;99.90
35395;DHT22;21500;45.308;9.488;2022-10-31T23:26:38;14.90;99.90
35395;DHT22;21500;45.308;9.488;2022-10-31T23:29:22;14.90;99.90
35395;DHT22;21500;45.308;9.488;2022-10-31T23:31:49;14.90;99.90
35395;DHT22;21500;45.308;9.488;2022-10-31T23:34:19;14.90;99.90
35395;DHT22;21500;45.308;9.488;2022-10-31T23:36:46;14.80;99.90
35395;DHT22;21500;45.308;9.488;2022-10-31T23:39:12;14.70;99.90
35395;DHT22;21500;45.308;9.488;2022-10-31T23:41:38;14.70;99.90
35395;DHT22;21500;45.308;9.488;2022-10-31T23:44:03;14.70;99.90
35395;DHT22;21500;45.308;9.488;2022-10-31T23:46:29;14.60;99.90
35395;DHT22;21500;45.308;9.488;2022-10-31T23:48:55;14.60;99.90
35395;DHT22;21500;45.308;9.488;2022-10-31T23:51:21;14.60;99.90
35395;DHT22;21500;45.308;9.488;2022-10-31T23:53:47;14.60;99.90
35395;DHT22;21500;45.308;9.488;2022-10-31T23:56:13;14.50;99.90
35395;DHT22;21500;45.308;9.488;2022-10-31T23:58:39;14.60;99.90
